Minto, Alaska
Current Conditions -  °F | °C
As of 5:53 PM on Monday 20 Oct 2014 (Local Time) from PANN Reporting Station
Overcast Overcast  
Wind Chill: 33°   Ceiling: 4000
Heat Index: 37°   Visibility: 10mi
Dew Point: 23°   Wind: 5mph
Humidity: 57%   Direction: 60°ENE
Pressure: 29.1"   Gusts: NA
Location:  65.03°N, 149.53°W
Report Text: PANN 210153Z AUTO 06004KT 10SM OVC040 03/M05 A2910 RMK AO2 SLP861 T00281050 TSNO
Loading
Personal Weather Stations






























Interactive Weather Map
Tropical Storm Tracking
New forecast layout! Learn more

10-Day Weather Forecast

Advertisements
Track Severe Weather on mobile